Time;durP1;ratioP1;P1;durP2;ratioP2;P2;SDS_P1;SDS_P2;PMS_P1;PMS_P2;Temp;Humidity;BMP_temperature;BMP_pressure;BME280_temperature;BME280_humidity;BME280_pressure;Samples;Min_cycle;Max_cycle;Signal;HPM_P1;HPM_P2
2023/04/20 00:00:39;;;;;;;6.47;3.33;;;;;;;;;;5093917;28;20059;-74
2023/04/20 00:03:06;;;;;;;6.20;3.70;;;;;;;;;;5077218;28;20047;-74
2023/04/20 00:05:32;;;;;;;6.88;3.80;;;;;;;;;;5094211;28;20097;-73
2023/04/20 00:07:58;;;;;;;4.38;3.05;;;;;;;;;;5086502;28;20052;-74
2023/04/20 00:10:24;;;;;;;5.55;3.05;;;;;;;;;;5075471;28;20119;-74
2023/04/20 00:12:50;;;;;;;6.32;3.50;;;;;;;;;;5094096;28;20058;-74
2023/04/20 00:15:16;;;;;;;6.20;3.47;;;;;;;;;;5093687;28;20048;-74
2023/04/20 00:17:43;;;;;;;6.47;2.90;;;;;;;;;;5073990;28;20079;-74
2023/04/20 00:20:09;;;;;;;4.93;2.70;;;;;;;;;;5092931;28;20417;-74
2023/04/20 00:22:35;;;;;;;4.13;2.88;;;;;;;;;;5091938;28;20532;-74
2023/04/20 00:25:02;;;;;;;7.20;2.65;;;;;;;;;;5077346;28;20044;-75
2023/04/20 00:27:28;;;;;;;4.55;2.60;;;;;;;;;;5083762;28;20446;-75
2023/04/20 00:29:54;;;;;;;4.70;2.75;;;;;;;;;;5093669;28;20059;-75
2023/04/20 00:32:20;;;;;;;5.43;2.72;;;;;;;;;;5083923;28;20416;-75
2023/04/20 00:34:46;;;;;;;7.05;2.90;;;;;;;;;;5093592;28;20040;-75
2023/04/20 00:37:12;;;;;;;3.72;2.92;;;;;;;;;;5086085;28;20410;-74
2023/04/20 00:39:40;;;;;;;5.47;2.83;;;;;;;;;;5083080;28;20049;-74
2023/04/20 00:42:07;;;;;;;5.38;2.80;;;;;;;;;;5073916;28;20051;-74
2023/04/20 00:44:33;;;;;;;4.70;2.80;;;;;;;;;;5086283;28;20421;-74
2023/04/20 00:47:00;;;;;;;5.63;2.60;;;;;;;;;;5066019;28;20048;-74
2023/04/20 00:49:28;;;;;;;4.75;2.60;;;;;;;;;;5083507;28;20047;-74
2023/04/20 00:51:55;;;;;;;4.13;2.70;;;;;;;;;;5072221;28;20562;-74
2023/04/20 00:54:21;;;;;;;4.85;2.70;;;;;;;;;;5084016;28;20113;-74
2023/04/20 00:56:48;;;;;;;5.32;2.75;;;;;;;;;;5093677;28;20052;-74
2023/04/20 00:59:14;;;;;;;4.85;2.67;;;;;;;;;;5093534;28;20046;-73
2023/04/20 01:01:41;;;;;;;4.93;2.63;;;;;;;;;;5085201;28;20046;-73
2023/04/20 01:04:08;;;;;;;5.68;2.63;;;;;;;;;;5088941;28;20048;-74
2023/04/20 01:06:34;;;;;;;5.25;2.45;;;;;;;;;;5081816;28;20486;-75
2023/04/20 01:09:00;;;;;;;6.32;2.88;;;;;;;;;;5086754;28;20049;-74
2023/04/20 01:11:26;;;;;;;7.30;2.95;;;;;;;;;;5079281;28;20076;-75
2023/04/20 01:13:52;;;;;;;8.00;2.70;;;;;;;;;;5080157;28;20048;-74
2023/04/20 01:16:18;;;;;;;7.03;2.80;;;;;;;;;;5087620;28;20047;-75
2023/04/20 01:18:46;;;;;;;3.83;2.35;;;;;;;;;;5092445;28;20040;-75
2023/04/20 01:21:16;;;;;;;5.93;2.70;;;;;;;;;;5078447;28;20052;-74
2023/04/20 01:23:42;;;;;;;7.20;2.63;;;;;;;;;;5088212;28;20116;-74
2023/04/20 01:26:09;;;;;;;4.72;2.30;;;;;;;;;;5092617;28;20037;-74
2023/04/20 01:28:35;;;;;;;4.85;2.60;;;;;;;;;;5093496;28;20398;-73
2023/04/20 01:31:03;;;;;;;7.97;3.00;;;;;;;;;;5076409;28;20113;-73
2023/04/20 01:33:29;;;;;;;5.82;2.95;;;;;;;;;;5093314;28;20095;-74
2023/04/20 01:35:55;;;;;;;3.60;2.50;;;;;;;;;;5088685;28;20040;-74
2023/04/20 01:38:22;;;;;;;3.97;2.50;;;;;;;;;;5106702;28;20040;-74
2023/04/20 01:40:48;;;;;;;6.10;2.92;;;;;;;;;;5089985;28;20036;-74
2023/04/20 01:43:15;;;;;;;5.28;2.65;;;;;;;;;;5074266;28;20049;-74
2023/04/20 01:45:41;;;;;;;7.90;2.83;;;;;;;;;;5094814;28;20053;-74
2023/04/20 01:48:07;;;;;;;6.28;2.50;;;;;;;;;;5096271;28;20043;-74
2023/04/20 01:50:33;;;;;;;4.70;2.72;;;;;;;;;;5096804;28;20115;-74
2023/04/20 01:52:59;;;;;;;8.68;2.92;;;;;;;;;;5074693;28;20044;-74
2023/04/20 01:55:25;;;;;;;7.97;3.00;;;;;;;;;;5088546;28;20064;-74
2023/04/20 01:57:51;;;;;;;6.00;2.67;;;;;;;;;;5076894;28;20489;-74
2023/04/20 02:00:18;;;;;;;5.85;2.75;;;;;;;;;;5088906;28;20044;-74
2023/04/20 02:02:44;;;;;;;7.78;3.15;;;;;;;;;;5076701;28;20045;-75
2023/04/20 02:05:10;;;;;;;9.00;2.95;;;;;;;;;;5084766;28;20040;-75
2023/04/20 02:07:36;;;;;;;4.60;3.08;;;;;;;;;;5076716;28;20040;-74
2023/04/20 02:10:03;;;;;;;6.45;3.15;;;;;;;;;;5086379;28;20083;-75
2023/04/20 02:12:29;;;;;;;7.63;3.03;;;;;;;;;;5090094;28;20474;-75
2023/04/20 02:14:55;;;;;;;6.68;3.17;;;;;;;;;;5095187;28;20049;-75
2023/04/20 02:17:21;;;;;;;5.93;2.92;;;;;;;;;;5075754;28;20044;-74
2023/04/20 02:19:47;;;;;;;6.13;3.17;;;;;;;;;;5086433;28;20056;-75
2023/04/20 02:22:13;;;;;;;5.30;3.00;;;;;;;;;;5094947;28;20105;-74
2023/04/20 02:24:40;;;;;;;5.72;3.10;;;;;;;;;;5095878;28;20506;-75
2023/04/20 02:27:06;;;;;;;4.88;3.15;;;;;;;;;;5095892;28;20076;-75
2023/04/20 02:29:32;;;;;;;8.50;3.08;;;;;;;;;;5087955;28;20040;-74
2023/04/20 02:31:58;;;;;;;9.13;3.13;;;;;;;;;;5095523;28;20066;-74
2023/04/20 02:34:24;;;;;;;5.60;3.03;;;;;;;;;;5094318;28;20044;-74
2023/04/20 02:36:51;;;;;;;7.25;3.50;;;;;;;;;;5095826;28;20040;-74
2023/04/20 02:39:17;;;;;;;5.18;3.10;;;;;;;;;;5096387;28;20044;-74
2023/04/20 02:41:43;;;;;;;6.25;3.28;;;;;;;;;;5079222;28;20049;-74
2023/04/20 02:44:09;;;;;;;5.38;3.15;;;;;;;;;;5078654;28;20050;-74
2023/04/20 02:46:35;;;;;;;8.75;3.22;;;;;;;;;;5085273;28;20162;-74
2023/04/20 02:49:02;;;;;;;7.97;3.20;;;;;;;;;;5085150;28;20126;-74
2023/04/20 02:51:28;;;;;;;6.00;3.00;;;;;;;;;;5094504;28;20052;-74
2023/04/20 02:53:55;;;;;;;9.35;3.20;;;;;;;;;;5067111;28;20490;-74
2023/04/20 02:56:21;;;;;;;7.18;3.90;;;;;;;;;;5080179;28;20390;-74
2023/04/20 02:58:47;;;;;;;6.22;3.10;;;;;;;;;;5075355;28;20044;-74
2023/04/20 03:01:14;;;;;;;10.15;3.50;;;;;;;;;;5094063;28;20049;-74
2023/04/20 03:03:40;;;;;;;7.22;3.22;;;;;;;;;;5077960;28;20040;-74
2023/04/20 03:06:07;;;;;;;7.63;3.20;;;;;;;;;;5063076;28;20072;-74
2023/04/20 03:08:33;;;;;;;6.35;3.63;;;;;;;;;;5057225;28;20044;-75
2023/04/20 03:10:59;;;;;;;12.90;3.58;;;;;;;;;;5090349;28;20055;-75
2023/04/20 03:13:25;;;;;;;9.43;3.55;;;;;;;;;;5095394;28;20433;-75
2023/04/20 03:15:51;;;;;;;7.15;3.80;;;;;;;;;;5091976;28;20577;-75
2023/04/20 03:18:17;;;;;;;5.38;3.40;;;;;;;;;;5073577;28;20080;-75
2023/04/20 03:20:43;;;;;;;5.43;3.20;;;;;;;;;;5088274;28;20127;-75
2023/04/20 03:23:10;;;;;;;8.75;3.58;;;;;;;;;;5093516;28;20055;-75
2023/04/20 03:25:36;;;;;;;8.43;3.50;;;;;;;;;;5093085;28;20052;-74
2023/04/20 03:28:02;;;;;;;9.77;3.85;;;;;;;;;;5094178;28;20387;-75
2023/04/20 03:30:28;;;;;;;7.40;3.83;;;;;;;;;;5091905;28;20048;-74
2023/04/20 03:32:54;;;;;;;7.75;4.03;;;;;;;;;;5081489;28;20115;-74
2023/04/20 03:35:20;;;;;;;7.55;3.60;;;;;;;;;;5079479;28;20044;-74
2023/04/20 03:37:46;;;;;;;11.30;3.92;;;;;;;;;;5074587;28;20067;-74
2023/04/20 03:40:12;;;;;;;8.18;3.90;;;;;;;;;;5067524;28;20040;-74
2023/04/20 03:42:38;;;;;;;10.88;4.05;;;;;;;;;;5094651;28;20040;-74
2023/04/20 03:45:05;;;;;;;7.05;3.45;;;;;;;;;;5088480;28;20489;-74
2023/04/20 03:47:32;;;;;;;9.18;3.58;;;;;;;;;;5078214;28;20040;-75
2023/04/20 03:49:58;;;;;;;7.75;3.35;;;;;;;;;;5094699;28;20058;-75
2023/04/20 03:52:24;;;;;;;7.60;3.80;;;;;;;;;;5077224;28;20047;-75
2023/04/20 03:54:50;;;;;;;5.43;3.15;;;;;;;;;;5094192;28;20050;-75
2023/04/20 03:57:16;;;;;;;8.65;3.40;;;;;;;;;;5089991;28;20062;-78
2023/04/20 03:59:42;;;;;;;8.35;3.22;;;;;;;;;;5075127;28;20113;-75
2023/04/20 04:02:09;;;;;;;8.15;3.95;;;;;;;;;;5073926;28;20096;-75
2023/04/20 04:04:35;;;;;;;9.27;3.47;;;;;;;;;;5075913;28;20049;-74
2023/04/20 04:07:02;;;;;;;5.05;3.20;;;;;;;;;;5074798;28;20449;-75
2023/04/20 04:09:28;;;;;;;6.38;3.53;;;;;;;;;;5075197;28;20048;-75
2023/04/20 04:11:54;;;;;;;7.38;3.20;;;;;;;;;;5075867;28;20045;-75
2023/04/20 04:14:20;;;;;;;5.97;3.53;;;;;;;;;;5078347;28;20043;-74
2023/04/20 04:16:46;;;;;;;7.68;3.05;;;;;;;;;;5095928;28;20058;-74
2023/04/20 04:19:12;;;;;;;9.10;3.55;;;;;;;;;;5099192;28;20044;-74
2023/04/20 04:21:38;;;;;;;6.00;3.30;;;;;;;;;;5075635;28;20052;-74
2023/04/20 04:24:05;;;;;;;9.07;3.50;;;;;;;;;;5074714;28;20124;-74
2023/04/20 04:26:32;;;;;;;5.88;3.65;;;;;;;;;;5090564;28;20072;-74
2023/04/20 04:28:58;;;;;;;6.55;3.63;;;;;;;;;;5093855;28;20500;-74
2023/04/20 04:31:25;;;;;;;9.60;3.47;;;;;;;;;;5091113;28;20524;-74
2023/04/20 04:33:51;;;;;;;7.55;3.42;;;;;;;;;;5094325;28;20040;-74
2023/04/20 04:36:17;;;;;;;8.48;3.63;;;;;;;;;;5093692;28;20046;-74
2023/04/20 04:38:44;;;;;;;12.13;4.30;;;;;;;;;;5092084;28;20048;-74
2023/04/20 04:41:13;;;;;;;7.00;3.40;;;;;;;;;;5090741;28;20436;-74
2023/04/20 04:43:39;;;;;;;8.52;3.85;;;;;;;;;;5077777;28;20044;-74
2023/04/20 04:46:09;;;;;;;10.50;3.58;;;;;;;;;;5085612;28;20540;-75
2023/04/20 04:48:36;;;;;;;11.65;3.80;;;;;;;;;;5092581;28;20051;-75
2023/04/20 04:51:02;;;;;;;7.30;3.47;;;;;;;;;;5093731;28;20121;-75
2023/04/20 04:53:28;;;;;;;7.10;3.35;;;;;;;;;;5075898;28;20121;-74
2023/04/20 04:55:54;;;;;;;7.75;3.58;;;;;;;;;;5080399;28;20040;-75
2023/04/20 04:58:20;;;;;;;9.68;3.55;;;;;;;;;;5092339;28;20079;-75
2023/04/20 05:00:47;;;;;;;10.52;3.50;;;;;;;;;;5081882;28;20064;-74
2023/04/20 05:03:13;;;;;;;9.50;4.03;;;;;;;;;;5093851;28;20048;-74
2023/04/20 05:05:39;;;;;;;6.75;3.70;;;;;;;;;;5093987;28;20050;-75
2023/04/20 05:08:05;;;;;;;7.47;3.70;;;;;;;;;;5093601;28;20051;-74
2023/04/20 05:10:31;;;;;;;12.57;3.50;;;;;;;;;;5085549;28;20047;-74
2023/04/20 05:13:03;;;;;;;9.68;3.70;;;;;;;;;;5087052;28;20044;-73
2023/04/20 05:15:32;;;;;;;9.85;3.47;;;;;;;;;;5092159;28;20085;-73
2023/04/20 05:17:58;;;;;;;7.93;3.58;;;;;;;;;;5094416;28;20101;-73
2023/04/20 05:20:31;;;;;;;6.75;3.67;;;;;;;;;;5084207;28;20051;-75
2023/04/20 05:22:57;;;;;;;6.47;3.50;;;;;;;;;;5097570;28;20127;-74
2023/04/20 05:25:23;;;;;;;9.15;3.78;;;;;;;;;;5095630;28;20111;-75
2023/04/20 05:27:50;;;;;;;8.65;3.67;;;;;;;;;;5097348;28;20527;-74
2023/04/20 05:30:16;;;;;;;7.95;3.65;;;;;;;;;;5063110;28;20048;-74
2023/04/20 05:32:42;;;;;;;6.28;3.22;;;;;;;;;;5097307;28;20051;-74
2023/04/20 05:35:08;;;;;;;9.80;3.80;;;;;;;;;;5095453;28;20080;-74
2023/04/20 05:37:34;;;;;;;12.05;4.00;;;;;;;;;;5096111;28;20486;-75
2023/04/20 05:40:00;;;;;;;8.95;3.53;;;;;;;;;;5091837;28;20517;-74
2023/04/20 05:42:26;;;;;;;10.18;3.35;;;;;;;;;;5087376;28;20052;-75
2023/04/20 05:44:52;;;;;;;7.57;3.20;;;;;;;;;;5077965;28;20517;-75
2023/04/20 05:47:18;;;;;;;5.82;3.10;;;;;;;;;;5095970;28;20040;-75
2023/04/20 05:49:44;;;;;;;7.00;3.05;;;;;;;;;;5091964;28;20037;-75
2023/04/20 05:52:11;;;;;;;6.90;3.47;;;;;;;;;;5089732;28;20122;-75
2023/04/20 05:54:37;;;;;;;11.15;3.33;;;;;;;;;;5059307;28;20052;-74
2023/04/20 05:57:04;;;;;;;7.07;3.20;;;;;;;;;;5092781;28;20050;-74
2023/04/20 05:59:30;;;;;;;8.65;3.47;;;;;;;;;;5094815;28;20094;-75
2023/04/20 06:01:56;;;;;;;6.00;2.80;;;;;;;;;;5090634;28;20040;-75
2023/04/20 06:04:22;;;;;;;4.82;2.83;;;;;;;;;;5095645;28;20063;-75
2023/04/20 06:06:49;;;;;;;5.85;3.20;;;;;;;;;;5094813;28;20044;-75
2023/04/20 06:09:16;;;;;;;8.35;2.80;;;;;;;;;;5095292;28;20040;-74
2023/04/20 06:11:42;;;;;;;6.40;2.50;;;;;;;;;;5092973;28;20048;-74
2023/04/20 06:14:10;;;;;;;6.38;2.72;;;;;;;;;;5094980;28;20066;-75
2023/04/20 06:16:36;;;;;;;4.93;2.65;;;;;;;;;;5095128;28;20432;-75
2023/04/20 06:19:03;;;;;;;4.55;2.70;;;;;;;;;;5083837;28;20539;-74
2023/04/20 06:21:29;;;;;;;5.63;3.08;;;;;;;;;;5085861;28;20044;-74
2023/04/20 06:23:56;;;;;;;8.05;2.80;;;;;;;;;;5091043;28;20387;-74
2023/04/20 06:26:22;;;;;;;5.85;3.28;;;;;;;;;;5082707;28;20040;-74
2023/04/20 06:28:50;;;;;;;7.97;2.92;;;;;;;;;;5087779;28;20079;-74
2023/04/20 06:31:16;;;;;;;6.40;3.20;;;;;;;;;;5095328;28;20071;-74
2023/04/20 06:33:42;;;;;;;7.78;3.00;;;;;;;;;;5095954;28;20051;-75
2023/04/20 06:36:08;;;;;;;7.18;2.80;;;;;;;;;;5095624;28;20043;-75
2023/04/20 06:38:35;;;;;;;7.75;3.10;;;;;;;;;;5089639;28;20048;-74
2023/04/20 06:41:01;;;;;;;8.50;3.08;;;;;;;;;;5060921;28;20481;-75
2023/04/20 06:43:28;;;;;;;7.68;2.88;;;;;;;;;;5085291;28;20459;-74
2023/04/20 06:45:54;;;;;;;7.88;2.88;;;;;;;;;;5079508;28;20119;-74
2023/04/20 06:48:20;;;;;;;5.32;2.67;;;;;;;;;;5088013;28;20115;-74
2023/04/20 06:50:49;;;;;;;4.57;2.65;;;;;;;;;;5086055;28;20044;-74
2023/04/20 06:53:16;;;;;;;5.70;2.60;;;;;;;;;;5095364;28;20044;-75
2023/04/20 06:55:42;;;;;;;6.00;3.13;;;;;;;;;;5074531;28;20048;-74
2023/04/20 06:58:08;;;;;;;10.80;3.20;;;;;;;;;;5076110;28;20064;-74
2023/04/20 07:00:34;;;;;;;5.80;3.10;;;;;;;;;;5075421;28;20087;-75
2023/04/20 07:03:01;;;;;;;6.20;2.90;;;;;;;;;;5095764;28;20368;-74
2023/04/20 07:05:27;;;;;;;6.43;2.63;;;;;;;;;;5094759;28;20036;-74
2023/04/20 07:07:54;;;;;;;8.50;3.30;;;;;;;;;;5089906;28;20047;-74
2023/04/20 07:10:20;;;;;;;5.53;3.00;;;;;;;;;;5084659;28;20043;-74
2023/04/20 07:12:47;;;;;;;6.43;2.80;;;;;;;;;;5092887;28;20480;-74
2023/04/20 07:15:13;;;;;;;4.90;2.90;;;;;;;;;;5094883;28;20044;-74
2023/04/20 07:17:39;;;;;;;6.50;3.08;;;;;;;;;;5094907;28;20448;-74
2023/04/20 07:20:09;;;;;;;5.95;3.10;;;;;;;;;;5083886;28;20086;-75
2023/04/20 07:22:36;;;;;;;4.70;3.20;;;;;;;;;;5091573;28;20040;-74
2023/04/20 07:25:09;;;;;;;7.00;3.70;;;;;;;;;;5099082;28;20127;-74
2023/04/20 07:27:36;;;;;;;7.47;3.60;;;;;;;;;;5090044;28;20051;-74
2023/04/20 07:30:05;;;;;;;5.85;3.13;;;;;;;;;;5075056;28;20383;-74
2023/04/20 07:32:31;;;;;;;7.93;3.25;;;;;;;;;;5088460;28;20039;-74
2023/04/20 07:34:57;;;;;;;4.93;3.50;;;;;;;;;;5089912;28;20036;-75
2023/04/20 07:37:23;;;;;;;6.78;3.65;;;;;;;;;;5070041;28;20064;-74
2023/04/20 07:39:51;;;;;;;7.90;3.97;;;;;;;;;;5093128;28;20063;-74
2023/04/20 07:42:17;;;;;;;6.93;3.53;;;;;;;;;;5093241;28;20048;-74
2023/04/20 07:44:44;;;;;;;7.25;3.63;;;;;;;;;;5089504;28;20045;-74
2023/04/20 07:47:10;;;;;;;7.57;3.58;;;;;;;;;;5080974;28;20131;-75
2023/04/20 07:49:37;;;;;;;7.78;3.70;;;;;;;;;;5077559;28;20067;-74
2023/04/20 07:52:03;;;;;;;7.88;3.70;;;;;;;;;;5088942;28;20048;-74
2023/04/20 07:54:29;;;;;;;5.10;3.50;;;;;;;;;;5086150;28;20109;-81
2023/04/20 07:56:55;;;;;;;6.80;3.60;;;;;;;;;;5078066;28;20449;-75
2023/04/20 07:59:21;;;;;;;7.47;3.85;;;;;;;;;;5087413;28;20040;-75
2023/04/20 08:01:47;;;;;;;5.60;3.83;;;;;;;;;;5087618;28;20036;-76
2023/04/20 08:04:13;;;;;;;7.47;3.75;;;;;;;;;;5078818;28;20132;-74
2023/04/20 08:06:39;;;;;;;8.70;4.22;;;;;;;;;;5090165;28;20126;-75
2023/04/20 08:09:05;;;;;;;5.35;3.50;;;;;;;;;;5085953;28;20429;-74
2023/04/20 08:11:31;;;;;;;8.52;3.67;;;;;;;;;;5081789;28;20522;-75
2023/04/20 08:14:00;;;;;;;7.60;3.88;;;;;;;;;;5094892;28;20120;-75
2023/04/20 08:16:26;;;;;;;5.18;3.13;;;;;;;;;;5092953;28;20332;-74
2023/04/20 08:18:52;;;;;;;6.35;3.55;;;;;;;;;;5087887;28;20151;-75
2023/04/20 08:21:21;;;;;;;6.68;4.10;;;;;;;;;;5075154;28;20114;-72
2023/04/20 08:23:47;;;;;;;10.35;4.32;;;;;;;;;;5094060;28;20044;-71
2023/04/20 08:26:16;;;;;;;9.40;4.20;;;;;;;;;;5086503;28;20040;-71
2023/04/20 08:28:43;;;;;;;6.47;4.00;;;;;;;;;;5074045;28;20129;-72
2023/04/20 08:31:10;;;;;;;7.30;3.78;;;;;;;;;;5073748;28;20076;-71
2023/04/20 08:33:36;;;;;;;7.30;3.88;;;;;;;;;;5094042;28;20046;-71
2023/04/20 08:36:02;;;;;;;7.22;4.10;;;;;;;;;;5086687;28;20048;-71
2023/04/20 08:38:28;;;;;;;9.18;4.13;;;;;;;;;;5092360;28;20040;-72
2023/04/20 08:40:54;;;;;;;10.45;4.22;;;;;;;;;;5081840;28;20040;-72
2023/04/20 08:43:20;;;;;;;9.63;4.22;;;;;;;;;;5075711;28;20048;-72
2023/04/20 08:45:51;;;;;;;9.20;4.43;;;;;;;;;;5087368;28;20046;-72
2023/04/20 08:48:19;;;;;;;10.57;4.15;;;;;;;;;;5091326;28;20083;-72
2023/04/20 08:50:46;;;;;;;8.32;4.30;;;;;;;;;;5074915;28;20510;-72
2023/04/20 08:53:13;;;;;;;8.00;4.75;;;;;;;;;;5086604;28;20037;-72
2023/04/20 08:55:39;;;;;;;8.50;4.43;;;;;;;;;;5082042;28;20056;-71
2023/04/20 08:58:05;;;;;;;8.52;4.90;;;;;;;;;;5085321;28;20127;-72
2023/04/20 09:00:31;;;;;;;8.85;4.78;;;;;;;;;;5073513;28;20045;-71
2023/04/20 09:02:58;;;;;;;11.43;4.75;;;;;;;;;;5086758;28;20040;-71
2023/04/20 09:05:28;;;;;;;14.68;4.72;;;;;;;;;;5080880;28;20052;-71
2023/04/20 09:07:56;;;;;;;10.50;4.43;;;;;;;;;;5093480;28;20111;-72
2023/04/20 09:10:25;;;;;;;11.02;5.30;;;;;;;;;;5078523;28;20098;-72
2023/04/20 09:12:51;;;;;;;9.65;5.05;;;;;;;;;;5086097;28;20040;-72
2023/04/20 09:15:31;;;;;;;8.63;4.85;;;;;;;;;;5093246;28;20481;-72
2023/04/20 09:17:57;;;;;;;7.63;4.93;;;;;;;;;;5093346;28;20036;-72
2023/04/20 09:20:28;;;;;;;6.63;4.93;;;;;;;;;;5076036;28;20440;-72
2023/04/20 09:22:56;;;;;;;10.20;4.80;;;;;;;;;;5086713;28;20104;-71
2023/04/20 09:25:25;;;;;;;10.43;5.00;;;;;;;;;;5075203;28;20435;-72
2023/04/20 09:27:55;;;;;;;9.77;5.15;;;;;;;;;;5081368;28;20072;-72
2023/04/20 09:30:21;;;;;;;10.45;4.75;;;;;;;;;;5089967;28;20123;-71
2023/04/20 09:32:47;;;;;;;9.18;5.10;;;;;;;;;;5086777;28;20051;-72
2023/04/20 09:35:22;;;;;;;12.43;5.63;;;;;;;;;;5086173;28;20112;-72
2023/04/20 09:37:48;;;;;;;10.32;5.70;;;;;;;;;;5087126;28;20428;-72
2023/04/20 09:40:15;;;;;;;9.07;5.50;;;;;;;;;;5073942;28;20041;-71
2023/04/20 09:42:42;;;;;;;9.45;5.25;;;;;;;;;;5087551;28;20047;-72
2023/04/20 09:45:08;;;;;;;9.93;5.00;;;;;;;;;;5091833;28;20044;-72
2023/04/20 09:47:36;;;;;;;9.07;4.95;;;;;;;;;;5092909;28;20344;-72
2023/04/20 09:50:03;;;;;;;8.63;4.80;;;;;;;;;;5091967;28;20551;-73
2023/04/20 09:52:30;;;;;;;10.20;4.68;;;;;;;;;;5075202;28;20055;-73
2023/04/20 09:54:56;;;;;;;10.60;4.93;;;;;;;;;;5073225;28;20127;-74
2023/04/20 09:57:24;;;;;;;11.55;5.53;;;;;;;;;;5062184;28;20040;-73
2023/04/20 09:59:51;;;;;;;10.95;4.78;;;;;;;;;;5090522;28;20588;-74
2023/04/20 10:02:17;;;;;;;9.68;5.43;;;;;;;;;;5091916;28;20040;-74
2023/04/20 10:04:53;;;;;;;9.75;5.15;;;;;;;;;;5094357;28;20482;-74
2023/04/20 10:07:25;;;;;;;10.80;5.53;;;;;;;;;;5082467;28;20036;-75
2023/04/20 10:10:04;;;;;;;11.18;5.57;;;;;;;;;;5096497;28;20048;-74
2023/04/20 10:12:30;;;;;;;8.80;5.13;;;;;;;;;;5096777;28;20046;-78
2023/04/20 10:14:56;;;;;;;10.43;5.25;;;;;;;;;;5078711;28;20067;-74
2023/04/20 10:17:30;;;;;;;12.93;6.20;;;;;;;;;;5080163;28;20047;-77
2023/04/20 10:19:56;;;;;;;8.23;5.53;;;;;;;;;;5085888;28;20068;-75
2023/04/20 10:22:32;;;;;;;10.18;6.38;;;;;;;;;;5080567;28;20044;-74
2023/04/20 10:24:59;;;;;;;10.18;5.97;;;;;;;;;;5096142;28;20524;-74
2023/04/20 10:27:25;;;;;;;9.73;5.45;;;;;;;;;;5081036;28;20097;-74
2023/04/20 10:29:51;;;;;;;14.27;5.93;;;;;;;;;;5082985;28;20044;-74
2023/04/20 10:32:22;;;;;;;10.77;6.10;;;;;;;;;;5079523;28;20490;-75
2023/04/20 10:34:48;;;;;;;10.57;5.65;;;;;;;;;;5098489;28;20425;-74
2023/04/20 10:37:14;;;;;;;10.07;5.93;;;;;;;;;;5100141;28;20043;-74
2023/04/20 10:39:44;;;;;;;9.98;5.78;;;;;;;;;;5096898;28;20044;-74
2023/04/20 10:42:10;;;;;;;10.35;5.60;;;;;;;;;;5095913;28;20553;-74
2023/04/20 10:44:46;;;;;;;10.32;5.70;;;;;;;;;;5094448;28;20046;-76
2023/04/20 10:47:13;;;;;;;;;;;;;;;;;;5096777;28;20545;-75
2023/04/20 10:49:40;;;;;;;10.07;5.45;;;;;;;;;;5096114;28;20006;-76
2023/04/20 10:52:13;;;;;;;9.35;5.95;;;;;;;;;;5077880;28;20048;-77
2023/04/20 10:54:45;;;;;;;12.05;6.28;;;;;;;;;;5075770;28;20048;-76
2023/04/20 10:57:16;;;;;;;9.65;5.40;;;;;;;;;;5058513;28;20083;-77
2023/04/20 10:59:42;;;;;;;8.32;5.70;;;;;;;;;;5077758;28;20044;-77
2023/04/20 11:02:09;;;;;;;11.02;5.53;;;;;;;;;;5089100;28;20040;-77
2023/04/20 11:04:36;;;;;;;9.88;5.75;;;;;;;;;;5090749;28;20080;-77
2023/04/20 11:07:06;;;;;;;9.43;5.88;;;;;;;;;;5074334;28;20049;-82
2023/04/20 11:09:33;;;;;;;9.57;5.57;;;;;;;;;;5088336;28;20439;-76
2023/04/20 11:12:06;;;;;;;8.98;5.70;;;;;;;;;;5080487;28;20048;-75
2023/04/20 11:14:33;;;;;;;8.43;5.65;;;;;;;;;;5093325;28;20063;-75
2023/04/20 11:16:59;;;;;;;11.70;5.72;;;;;;;;;;5094024;28;20075;-75
2023/04/20 11:19:26;;;;;;;7.53;5.82;;;;;;;;;;5093793;28;20040;-75
2023/04/20 11:21:52;;;;;;;9.98;5.80;;;;;;;;;;5093182;28;20433;-75
2023/04/20 11:24:19;;;;;;;9.75;5.38;;;;;;;;;;5078453;28;20402;-74
2023/04/20 11:26:48;;;;;;;9.23;5.70;;;;;;;;;;5074968;28;20483;-75
2023/04/20 11:29:25;;;;;;;9.48;5.45;;;;;;;;;;5090465;28;20056;-74
2023/04/20 11:31:51;;;;;;;10.32;6.03;;;;;;;;;;5094615;28;20047;-75
2023/04/20 11:34:18;;;;;;;11.82;6.20;;;;;;;;;;5085772;28;20385;-75
2023/04/20 11:36:45;;;;;;;8.60;6.50;;;;;;;;;;5079991;28;20528;-75
2023/04/20 11:39:14;;;;;;;7.22;5.63;;;;;;;;;;5083842;28;20037;-75
2023/04/20 11:41:41;;;;;;;10.23;5.70;;;;;;;;;;5074606;28;20060;-75
2023/04/20 11:44:07;;;;;;;11.05;5.88;;;;;;;;;;5083963;28;20052;-76
2023/04/20 11:46:36;;;;;;;8.60;5.72;;;;;;;;;;5067462;28;20056;-76
2023/04/20 11:49:03;;;;;;;8.25;5.32;;;;;;;;;;5086240;28;20056;-76
2023/04/20 11:51:30;;;;;;;7.80;5.10;;;;;;;;;;5084379;28;20048;-75
2023/04/20 11:53:56;;;;;;;7.55;5.30;;;;;;;;;;5087025;28;20115;-75
2023/04/20 11:56:22;;;;;;;7.95;5.35;;;;;;;;;;5076177;28;20582;-75
2023/04/20 11:58:49;;;;;;;7.57;5.32;;;;;;;;;;5067614;28;20123;-75
2023/04/20 12:01:15;;;;;;;8.65;5.78;;;;;;;;;;5093207;28;20103;-75
2023/04/20 12:03:42;;;;;;;9.90;5.78;;;;;;;;;;5084557;28;20044;-76
2023/04/20 12:06:08;;;;;;;9.15;6.38;;;;;;;;;;5088940;28;20067;-79
2023/04/20 12:08:34;;;;;;;9.52;5.72;;;;;;;;;;5091449;28;20042;-76
2023/04/20 12:11:00;;;;;;;7.32;5.75;;;;;;;;;;5078987;28;20048;-78
2023/04/20 12:13:26;;;;;;;9.48;5.97;;;;;;;;;;5075204;28;20041;-77
2023/04/20 12:15:52;;;;;;;8.05;5.80;;;;;;;;;;5074778;28;20037;-76
2023/04/20 12:18:19;;;;;;;10.93;6.13;;;;;;;;;;5080355;28;20071;-78
2023/04/20 12:20:46;;;;;;;10.00;4.78;;;;;;;;;;5091363;28;20044;-78
2023/04/20 12:23:12;;;;;;;6.07;5.10;;;;;;;;;;5075065;28;21084;-77
2023/04/20 12:25:38;;;;;;;8.30;5.93;;;;;;;;;;5080417;28;20040;-77
2023/04/20 12:28:06;;;;;;;8.18;6.18;;;;;;;;;;5088446;28;20138;-77
2023/04/20 12:30:34;;;;;;;7.20;5.45;;;;;;;;;;5075891;28;20062;-78
2023/04/20 12:33:00;;;;;;;6.72;4.97;;;;;;;;;;5076975;28;20043;-77
2023/04/20 12:35:26;;;;;;;10.38;5.97;;;;;;;;;;5091883;28;20180;-77
2023/04/20 12:37:56;;;;;;;8.40;6.03;;;;;;;;;;5074223;28;20047;-77
2023/04/20 12:40:22;;;;;;;7.15;6.10;;;;;;;;;;5088156;28;20033;-77
2023/04/20 12:42:48;;;;;;;7.30;5.72;;;;;;;;;;5073694;28;20040;-77
2023/04/20 12:45:14;;;;;;;8.40;6.18;;;;;;;;;;5092227;28;20533;-77
2023/04/20 12:47:40;;;;;;;7.22;5.07;;;;;;;;;;5089040;28;20090;-77
2023/04/20 12:50:07;;;;;;;8.50;5.72;;;;;;;;;;5080321;28;20052;-77
2023/04/20 12:52:33;;;;;;;7.32;6.07;;;;;;;;;;5084339;28;20069;-77
2023/04/20 12:55:00;;;;;;;9.25;5.70;;;;;;;;;;5090762;28;20135;-77
2023/04/20 12:57:27;;;;;;;8.60;5.85;;;;;;;;;;5076853;28;20414;-77
2023/04/20 12:59:53;;;;;;;7.72;5.97;;;;;;;;;;5088246;28;20071;-78
2023/04/20 13:02:19;;;;;;;7.47;5.25;;;;;;;;;;5073274;28;20094;-77
2023/04/20 13:04:45;;;;;;;8.07;6.72;;;;;;;;;;5087410;28;20047;-77
2023/04/20 13:07:12;;;;;;;9.95;6.28;;;;;;;;;;5088659;28;20505;-78
2023/04/20 13:09:38;;;;;;;7.38;5.90;;;;;;;;;;5088514;28;20043;-78
2023/04/20 13:12:04;;;;;;;8.57;5.53;;;;;;;;;;5082622;28;20047;-78
2023/04/20 13:14:31;;;;;;;8.20;5.68;;;;;;;;;;5068224;28;20052;-78
2023/04/20 13:17:00;;;;;;;9.80;6.47;;;;;;;;;;5073361;28;20120;-77
2023/04/20 13:19:27;;;;;;;8.85;6.10;;;;;;;;;;5084539;28;20063;-77
2023/04/20 13:21:53;;;;;;;8.35;6.07;;;;;;;;;;5077669;28;20052;-77
2023/04/20 13:24:20;;;;;;;8.80;6.30;;;;;;;;;;5087674;28;20058;-77
2023/04/20 13:26:46;;;;;;;9.05;6.18;;;;;;;;;;5078827;28;20086;-77
2023/04/20 13:29:12;;;;;;;7.35;5.45;;;;;;;;;;5073549;28;20084;-77
2023/04/20 13:31:39;;;;;;;7.88;6.53;;;;;;;;;;5098581;28;20086;-78
2023/04/20 13:34:05;;;;;;;9.07;6.53;;;;;;;;;;5100638;28;20379;-78
2023/04/20 13:36:32;;;;;;;9.30;6.63;;;;;;;;;;5073905;28;20076;-77
2023/04/20 13:38:58;;;;;;;9.55;6.07;;;;;;;;;;5080562;28;20052;-77
2023/04/20 13:41:24;;;;;;;8.95;6.72;;;;;;;;;;5100561;28;20040;-78
2023/04/20 13:43:50;;;;;;;8.40;6.25;;;;;;;;;;5090753;28;20102;-78
2023/04/20 13:46:17;;;;;;;9.55;6.97;;;;;;;;;;5081521;28;20124;-78
2023/04/20 13:48:43;;;;;;;11.27;7.10;;;;;;;;;;5084282;28;20048;-77
2023/04/20 13:51:09;;;;;;;9.15;6.65;;;;;;;;;;5099153;28;20123;-78
2023/04/20 13:53:35;;;;;;;8.50;6.85;;;;;;;;;;5077590;28;20471;-78
2023/04/20 13:56:01;;;;;;;7.60;6.45;;;;;;;;;;5092947;28;20049;-78
2023/04/20 13:58:27;;;;;;;9.65;6.70;;;;;;;;;;5088210;28;20056;-78
2023/04/20 14:00:53;;;;;;;9.25;7.05;;;;;;;;;;5078907;28;20063;-77
2023/04/20 14:03:20;;;;;;;9.10;7.00;;;;;;;;;;5096733;28;20144;-77
2023/04/20 14:05:46;;;;;;;9.02;6.88;;;;;;;;;;5093231;28;20089;-77
2023/04/20 14:08:12;;;;;;;7.13;5.85;;;;;;;;;;5076561;28;20120;-78
2023/04/20 14:10:39;;;;;;;10.85;7.45;;;;;;;;;;5089996;28;20545;-78
2023/04/20 14:13:06;;;;;;;10.27;6.82;;;;;;;;;;5095914;28;20386;-77
2023/04/20 14:15:32;;;;;;;9.10;7.15;;;;;;;;;;5096373;28;20067;-77
2023/04/20 14:17:59;;;;;;;9.55;6.32;;;;;;;;;;5095926;28;20040;-78
2023/04/20 14:20:25;;;;;;;8.82;6.82;;;;;;;;;;5092105;28;20051;-78
2023/04/20 14:22:51;;;;;;;8.00;6.47;;;;;;;;;;5081241;28;20120;-78
2023/04/20 14:25:18;;;;;;;9.07;7.00;;;;;;;;;;5095817;28;20048;-78
2023/04/20 14:27:45;;;;;;;9.15;6.88;;;;;;;;;;5096546;28;20040;-77
2023/04/20 14:30:11;;;;;;;8.57;6.90;;;;;;;;;;5097076;28;20082;-78
2023/04/20 14:32:37;;;;;;;8.48;6.82;;;;;;;;;;5096261;28;20047;-77
2023/04/20 14:35:04;;;;;;;8.20;6.70;;;;;;;;;;5092365;28;20040;-78
2023/04/20 14:37:30;;;;;;;9.68;7.25;;;;;;;;;;5096231;28;20047;-78